sensor_id;sensor_type;location;lat;lon;timestamp;P1;durP1;ratioP1;P2;durP2;ratioP2
82230;SDS011;71832;45.138;9.816;2023-08-06T00:01:34;2.97;;;1.48;;
82230;SDS011;71832;45.138;9.816;2023-08-06T00:04:02;2.03;;;1.42;;
82230;SDS011;71832;45.138;9.816;2023-08-06T00:06:30;3.88;;;1.88;;
82230;SDS011;71832;45.138;9.816;2023-08-06T00:08:58;2.05;;;1.50;;
82230;SDS011;71832;45.138;9.816;2023-08-06T00:11:26;2.20;;;1.60;;
82230;SDS011;71832;45.138;9.816;2023-08-06T00:13:53;3.50;;;1.50;;
82230;SDS011;71832;45.138;9.816;2023-08-06T00:16:21;1.85;;;1.35;;
82230;SDS011;71832;45.138;9.816;2023-08-06T00:18:49;1.42;;;1.33;;
82230;SDS011;71832;45.138;9.816;2023-08-06T00:21:17;4.20;;;1.60;;
82230;SDS011;71832;45.138;9.816;2023-08-06T00:23:45;2.60;;;1.40;;
82230;SDS011;71832;45.138;9.816;2023-08-06T00:26:13;3.10;;;1.67;;
82230;SDS011;71832;45.138;9.816;2023-08-06T00:28:42;2.30;;;1.60;;
82230;SDS011;71832;45.138;9.816;2023-08-06T00:31:10;3.38;;;1.83;;
82230;SDS011;71832;45.138;9.816;2023-08-06T00:33:38;2.35;;;1.52;;
82230;SDS011;71832;45.138;9.816;2023-08-06T00:36:06;3.65;;;1.52;;
82230;SDS011;71832;45.138;9.816;2023-08-06T00:38:35;2.25;;;1.55;;
82230;SDS011;71832;45.138;9.816;2023-08-06T00:41:03;6.80;;;1.70;;
82230;SDS011;71832;45.138;9.816;2023-08-06T00:43:31;3.22;;;1.50;;
82230;SDS011;71832;45.138;9.816;2023-08-06T00:45:59;2.92;;;1.70;;
82230;SDS011;71832;45.138;9.816;2023-08-06T00:48:28;3.72;;;1.70;;
82230;SDS011;71832;45.138;9.816;2023-08-06T00:50:56;6.07;;;2.10;;
82230;SDS011;71832;45.138;9.816;2023-08-06T00:53:24;2.92;;;2.10;;
82230;SDS011;71832;45.138;9.816;2023-08-06T00:55:52;2.40;;;2.17;;
82230;SDS011;71832;45.138;9.816;2023-08-06T00:58:21;4.30;;;1.65;;
82230;SDS011;71832;45.138;9.816;2023-08-06T01:00:49;3.20;;;1.75;;
82230;SDS011;71832;45.138;9.816;2023-08-06T01:03:17;2.10;;;1.77;;
82230;SDS011;71832;45.138;9.816;2023-08-06T01:05:46;2.45;;;1.95;;
82230;SDS011;71832;45.138;9.816;2023-08-06T01:08:38;4.75;;;2.58;;
82230;SDS011;71832;45.138;9.816;2023-08-06T01:11:46;3.17;;;2.85;;
82230;SDS011;71832;45.138;9.816;2023-08-06T01:14:16;3.38;;;1.88;;
82230;SDS011;71832;45.138;9.816;2023-08-06T01:16:48;1.95;;;1.77;;
82230;SDS011;71832;45.138;9.816;2023-08-06T01:19:18;3.47;;;2.13;;
82230;SDS011;71832;45.138;9.816;2023-08-06T01:21:46;2.47;;;1.95;;
82230;SDS011;71832;45.138;9.816;2023-08-06T01:24:14;2.05;;;1.83;;
82230;SDS011;71832;45.138;9.816;2023-08-06T01:26:44;6.68;;;2.10;;
82230;SDS011;71832;45.138;9.816;2023-08-06T01:29:23;4.38;;;2.22;;
82230;SDS011;71832;45.138;9.816;2023-08-06T01:31:57;2.03;;;1.77;;
82230;SDS011;71832;45.138;9.816;2023-08-06T01:34:27;2.65;;;1.83;;
82230;SDS011;71832;45.138;9.816;2023-08-06T01:36:59;2.75;;;1.90;;
82230;SDS011;71832;45.138;9.816;2023-08-06T01:39:28;2.05;;;1.50;;
82230;SDS011;71832;45.138;9.816;2023-08-06T01:41:59;2.55;;;1.80;;
82230;SDS011;71832;45.138;9.816;2023-08-06T01:44:27;4.72;;;1.80;;
82230;SDS011;71832;45.138;9.816;2023-08-06T01:46:55;2.78;;;1.92;;
82230;SDS011;71832;45.138;9.816;2023-08-06T01:49:23;3.28;;;2.30;;
82230;SDS011;71832;45.138;9.816;2023-08-06T01:51:51;3.67;;;2.65;;
82230;SDS011;71832;45.138;9.816;2023-08-06T01:54:19;4.82;;;2.35;;
82230;SDS011;71832;45.138;9.816;2023-08-06T01:56:48;4.97;;;2.38;;
82230;SDS011;71832;45.138;9.816;2023-08-06T01:59:16;3.47;;;2.90;;
82230;SDS011;71832;45.138;9.816;2023-08-06T02:01:44;2.90;;;2.28;;
82230;SDS011;71832;45.138;9.816;2023-08-06T02:04:12;5.03;;;2.22;;
82230;SDS011;71832;45.138;9.816;2023-08-06T02:06:40;4.60;;;2.63;;
82230;SDS011;71832;45.138;9.816;2023-08-06T02:09:08;2.85;;;2.17;;
82230;SDS011;71832;45.138;9.816;2023-08-06T02:11:36;2.90;;;2.03;;
82230;SDS011;71832;45.138;9.816;2023-08-06T02:14:04;4.60;;;2.22;;
82230;SDS011;71832;45.138;9.816;2023-08-06T02:16:32;3.42;;;2.30;;
82230;SDS011;71832;45.138;9.816;2023-08-06T02:19:00;6.72;;;2.30;;
82230;SDS011;71832;45.138;9.816;2023-08-06T02:21:29;2.65;;;2.25;;
82230;SDS011;71832;45.138;9.816;2023-08-06T02:23:56;2.72;;;2.33;;
82230;SDS011;71832;45.138;9.816;2023-08-06T02:26:24;3.05;;;1.85;;
82230;SDS011;71832;45.138;9.816;2023-08-06T02:28:52;3.33;;;1.80;;
82230;SDS011;71832;45.138;9.816;2023-08-06T02:31:20;3.28;;;2.30;;
82230;SDS011;71832;45.138;9.816;2023-08-06T02:33:49;5.07;;;1.90;;
82230;SDS011;71832;45.138;9.816;2023-08-06T02:36:16;3.67;;;2.30;;
82230;SDS011;71832;45.138;9.816;2023-08-06T02:38:44;5.20;;;2.80;;
82230;SDS011;71832;45.138;9.816;2023-08-06T02:41:13;3.47;;;2.50;;
82230;SDS011;71832;45.138;9.816;2023-08-06T02:43:42;4.40;;;2.50;;
82230;SDS011;71832;45.138;9.816;2023-08-06T02:46:09;3.40;;;2.75;;
82230;SDS011;71832;45.138;9.816;2023-08-06T02:48:36;4.22;;;2.80;;
82230;SDS011;71832;45.138;9.816;2023-08-06T02:51:04;4.28;;;2.72;;
82230;SDS011;71832;45.138;9.816;2023-08-06T02:53:33;4.03;;;3.28;;
82230;SDS011;71832;45.138;9.816;2023-08-06T02:56:00;4.22;;;3.03;;
82230;SDS011;71832;45.138;9.816;2023-08-06T02:58:28;6.13;;;3.60;;
82230;SDS011;71832;45.138;9.816;2023-08-06T03:01:06;4.15;;;3.30;;
82230;SDS011;71832;45.138;9.816;2023-08-06T03:03:35;4.18;;;3.30;;
82230;SDS011;71832;45.138;9.816;2023-08-06T03:06:03;5.55;;;3.35;;
82230;SDS011;71832;45.138;9.816;2023-08-06T03:08:31;4.50;;;3.40;;
82230;SDS011;71832;45.138;9.816;2023-08-06T03:10:59;5.35;;;4.35;;
82230;SDS011;71832;45.138;9.816;2023-08-06T03:13:27;7.53;;;4.40;;
82230;SDS011;71832;45.138;9.816;2023-08-06T03:15:55;6.43;;;4.18;;
82230;SDS011;71832;45.138;9.816;2023-08-06T03:18:27;5.43;;;4.53;;
82230;SDS011;71832;45.138;9.816;2023-08-06T03:20:54;6.45;;;3.83;;
82230;SDS011;71832;45.138;9.816;2023-08-06T03:23:22;4.35;;;3.58;;
82230;SDS011;71832;45.138;9.816;2023-08-06T03:25:51;4.97;;;3.65;;
82230;SDS011;71832;45.138;9.816;2023-08-06T03:28:19;4.38;;;3.63;;
82230;SDS011;71832;45.138;9.816;2023-08-06T03:30:47;5.78;;;3.72;;
82230;SDS011;71832;45.138;9.816;2023-08-06T03:33:24;4.57;;;3.17;;
82230;SDS011;71832;45.138;9.816;2023-08-06T03:35:52;4.55;;;3.80;;
82230;SDS011;71832;45.138;9.816;2023-08-06T03:38:20;5.95;;;3.13;;
82230;SDS011;71832;45.138;9.816;2023-08-06T03:40:48;4.53;;;3.17;;
82230;SDS011;71832;45.138;9.816;2023-08-06T03:43:17;5.68;;;3.30;;
82230;SDS011;71832;45.138;9.816;2023-08-06T03:45:45;4.72;;;3.70;;
82230;SDS011;71832;45.138;9.816;2023-08-06T03:48:12;5.85;;;3.78;;
82230;SDS011;71832;45.138;9.816;2023-08-06T03:50:39;5.57;;;3.72;;
82230;SDS011;71832;45.138;9.816;2023-08-06T03:53:07;5.97;;;3.50;;
82230;SDS011;71832;45.138;9.816;2023-08-06T03:55:34;4.72;;;3.72;;
82230;SDS011;71832;45.138;9.816;2023-08-06T03:58:02;6.03;;;3.58;;
82230;SDS011;71832;45.138;9.816;2023-08-06T04:00:30;4.15;;;3.67;;
82230;SDS011;71832;45.138;9.816;2023-08-06T04:02:58;5.45;;;3.70;;
82230;SDS011;71832;45.138;9.816;2023-08-06T04:05:26;4.80;;;3.63;;
82230;SDS011;71832;45.138;9.816;2023-08-06T04:07:57;7.22;;;4.20;;
82230;SDS011;71832;45.138;9.816;2023-08-06T04:10:25;7.38;;;4.00;;
82230;SDS011;71832;45.138;9.816;2023-08-06T04:12:54;7.07;;;4.05;;
82230;SDS011;71832;45.138;9.816;2023-08-06T04:15:22;5.75;;;4.22;;
82230;SDS011;71832;45.138;9.816;2023-08-06T04:17:49;6.28;;;3.92;;
82230;SDS011;71832;45.138;9.816;2023-08-06T04:20:17;9.55;;;4.53;;
82230;SDS011;71832;45.138;9.816;2023-08-06T04:22:45;5.55;;;3.97;;
82230;SDS011;71832;45.138;9.816;2023-08-06T04:25:13;6.68;;;4.57;;
82230;SDS011;71832;45.138;9.816;2023-08-06T04:27:41;5.07;;;4.10;;
82230;SDS011;71832;45.138;9.816;2023-08-06T04:30:09;7.10;;;4.60;;
82230;SDS011;71832;45.138;9.816;2023-08-06T04:32:38;5.68;;;4.85;;
82230;SDS011;71832;45.138;9.816;2023-08-06T04:35:07;5.60;;;4.60;;
82230;SDS011;71832;45.138;9.816;2023-08-06T04:37:36;7.63;;;5.40;;
82230;SDS011;71832;45.138;9.816;2023-08-06T04:40:04;6.60;;;4.53;;
82230;SDS011;71832;45.138;9.816;2023-08-06T04:42:33;7.13;;;5.35;;
82230;SDS011;71832;45.138;9.816;2023-08-06T04:45:01;8.65;;;5.45;;
82230;SDS011;71832;45.138;9.816;2023-08-06T04:47:28;5.88;;;5.25;;
82230;SDS011;71832;45.138;9.816;2023-08-06T04:49:56;5.57;;;4.30;;
82230;SDS011;71832;45.138;9.816;2023-08-06T04:52:23;7.43;;;5.28;;
82230;SDS011;71832;45.138;9.816;2023-08-06T04:54:54;7.70;;;4.78;;
82230;SDS011;71832;45.138;9.816;2023-08-06T04:57:22;7.38;;;5.05;;
82230;SDS011;71832;45.138;9.816;2023-08-06T04:59:49;6.30;;;4.65;;
82230;SDS011;71832;45.138;9.816;2023-08-06T05:02:17;7.75;;;4.45;;
82230;SDS011;71832;45.138;9.816;2023-08-06T05:04:45;5.50;;;3.97;;
82230;SDS011;71832;45.138;9.816;2023-08-06T05:07:13;4.60;;;3.85;;
82230;SDS011;71832;45.138;9.816;2023-08-06T05:09:40;6.10;;;4.32;;
82230;SDS011;71832;45.138;9.816;2023-08-06T05:12:08;6.15;;;4.90;;
82230;SDS011;71832;45.138;9.816;2023-08-06T05:14:36;5.60;;;4.53;;
82230;SDS011;71832;45.138;9.816;2023-08-06T05:17:03;7.15;;;5.55;;
82230;SDS011;71832;45.138;9.816;2023-08-06T05:19:31;7.00;;;5.10;;
82230;SDS011;71832;45.138;9.816;2023-08-06T05:21:58;6.97;;;5.07;;
82230;SDS011;71832;45.138;9.816;2023-08-06T05:24:27;8.43;;;5.93;;
82230;SDS011;71832;45.138;9.816;2023-08-06T05:26:55;6.97;;;5.80;;
82230;SDS011;71832;45.138;9.816;2023-08-06T05:29:22;6.43;;;5.40;;
82230;SDS011;71832;45.138;9.816;2023-08-06T05:31:51;9.30;;;5.90;;
82230;SDS011;71832;45.138;9.816;2023-08-06T05:34:18;6.80;;;5.85;;
82230;SDS011;71832;45.138;9.816;2023-08-06T05:36:46;8.50;;;6.25;;
82230;SDS011;71832;45.138;9.816;2023-08-06T05:39:13;6.88;;;5.07;;
82230;SDS011;71832;45.138;9.816;2023-08-06T05:41:41;7.30;;;4.70;;
82230;SDS011;71832;45.138;9.816;2023-08-06T05:44:08;6.07;;;4.38;;
82230;SDS011;71832;45.138;9.816;2023-08-06T05:46:36;7.75;;;4.60;;
82230;SDS011;71832;45.138;9.816;2023-08-06T05:49:04;5.95;;;4.47;;
82230;SDS011;71832;45.138;9.816;2023-08-06T05:51:32;6.22;;;4.30;;
82230;SDS011;71832;45.138;9.816;2023-08-06T05:54:00;4.63;;;3.85;;
82230;SDS011;71832;45.138;9.816;2023-08-06T05:56:28;5.05;;;3.78;;
82230;SDS011;71832;45.138;9.816;2023-08-06T05:58:57;4.95;;;4.10;;
82230;SDS011;71832;45.138;9.816;2023-08-06T06:01:26;6.90;;;4.03;;
82230;SDS011;71832;45.138;9.816;2023-08-06T06:03:53;4.05;;;3.05;;
82230;SDS011;71832;45.138;9.816;2023-08-06T06:06:22;5.40;;;3.65;;
82230;SDS011;71832;45.138;9.816;2023-08-06T06:08:50;5.63;;;3.13;;
82230;SDS011;71832;45.138;9.816;2023-08-06T06:11:18;4.38;;;3.08;;
82230;SDS011;71832;45.138;9.816;2023-08-06T06:13:51;3.90;;;2.20;;
82230;SDS011;71832;45.138;9.816;2023-08-06T06:16:20;3.20;;;2.10;;
82230;SDS011;71832;45.138;9.816;2023-08-06T06:18:49;6.43;;;2.20;;
82230;SDS011;71832;45.138;9.816;2023-08-06T06:21:17;3.50;;;2.13;;
82230;SDS011;71832;45.138;9.816;2023-08-06T06:23:46;2.83;;;1.85;;
82230;SDS011;71832;45.138;9.816;2023-08-06T06:26:14;3.28;;;2.10;;
82230;SDS011;71832;45.138;9.816;2023-08-06T06:28:43;3.70;;;2.13;;
82230;SDS011;71832;45.138;9.816;2023-08-06T06:31:10;3.42;;;1.75;;
82230;SDS011;71832;45.138;9.816;2023-08-06T06:33:38;2.63;;;1.80;;
82230;SDS011;71832;45.138;9.816;2023-08-06T06:36:06;2.03;;;1.73;;
82230;SDS011;71832;45.138;9.816;2023-08-06T06:38:35;4.38;;;1.60;;
82230;SDS011;71832;45.138;9.816;2023-08-06T06:41:04;3.20;;;1.92;;
82230;SDS011;71832;45.138;9.816;2023-08-06T06:43:32;4.95;;;1.60;;
82230;SDS011;71832;45.138;9.816;2023-08-06T06:46:00;2.95;;;1.67;;
82230;SDS011;71832;45.138;9.816;2023-08-06T06:48:28;3.28;;;1.77;;
82230;SDS011;71832;45.138;9.816;2023-08-06T06:50:59;2.08;;;1.60;;
82230;SDS011;71832;45.138;9.816;2023-08-06T06:53:27;3.22;;;1.73;;
82230;SDS011;71832;45.138;9.816;2023-08-06T06:55:56;3.55;;;1.63;;
82230;SDS011;71832;45.138;9.816;2023-08-06T06:58:34;4.32;;;1.50;;
82230;SDS011;71832;45.138;9.816;2023-08-06T07:01:04;4.35;;;1.63;;
82230;SDS011;71832;45.138;9.816;2023-08-06T07:03:33;6.50;;;1.50;;
82230;SDS011;71832;45.138;9.816;2023-08-06T07:06:02;4.97;;;1.52;;
82230;SDS011;71832;45.138;9.816;2023-08-06T07:08:31;3.95;;;1.60;;
82230;SDS011;71832;45.138;9.816;2023-08-06T07:11:01;4.00;;;1.45;;
82230;SDS011;71832;45.138;9.816;2023-08-06T07:13:31;2.10;;;1.58;;
82230;SDS011;71832;45.138;9.816;2023-08-06T07:16:01;2.53;;;1.50;;
82230;SDS011;71832;45.138;9.816;2023-08-06T07:18:29;2.75;;;1.40;;
82230;SDS011;71832;45.138;9.816;2023-08-06T07:20:58;4.20;;;1.60;;
82230;SDS011;71832;45.138;9.816;2023-08-06T07:23:27;3.42;;;1.60;;
82230;SDS011;71832;45.138;9.816;2023-08-06T07:25:55;4.55;;;1.42;;
82230;SDS011;71832;45.138;9.816;2023-08-06T07:28:24;3.60;;;1.73;;
82230;SDS011;71832;45.138;9.816;2023-08-06T07:30:51;4.10;;;1.45;;
82230;SDS011;71832;45.138;9.816;2023-08-06T07:33:20;3.67;;;1.58;;
82230;SDS011;71832;45.138;9.816;2023-08-06T07:35:47;1.98;;;1.70;;
82230;SDS011;71832;45.138;9.816;2023-08-06T07:38:16;1.70;;;1.40;;
82230;SDS011;71832;45.138;9.816;2023-08-06T07:40:44;2.55;;;1.30;;
82230;SDS011;71832;45.138;9.816;2023-08-06T07:43:12;3.10;;;1.30;;
82230;SDS011;71832;45.138;9.816;2023-08-06T07:45:39;3.22;;;1.60;;
82230;SDS011;71832;45.138;9.816;2023-08-06T07:48:07;11.10;;;1.50;;
82230;SDS011;71832;45.138;9.816;2023-08-06T07:50:34;5.38;;;1.40;;
82230;SDS011;71832;45.138;9.816;2023-08-06T07:53:02;3.30;;;1.40;;
82230;SDS011;71832;45.138;9.816;2023-08-06T07:55:31;2.55;;;1.20;;
82230;SDS011;71832;45.138;9.816;2023-08-06T07:57:59;3.83;;;1.33;;
82230;SDS011;71832;45.138;9.816;2023-08-06T08:00:27;3.83;;;1.10;;
82230;SDS011;71832;45.138;9.816;2023-08-06T08:02:55;2.67;;;1.20;;
82230;SDS011;71832;45.138;9.816;2023-08-06T08:05:23;1.67;;;1.30;;
82230;SDS011;71832;45.138;9.816;2023-08-06T08:07:52;4.35;;;1.15;;
82230;SDS011;71832;45.138;9.816;2023-08-06T08:10:20;2.97;;;1.33;;
82230;SDS011;71832;45.138;9.816;2023-08-06T08:12:47;4.25;;;1.25;;
82230;SDS011;71832;45.138;9.816;2023-08-06T08:15:15;2.55;;;1.20;;
82230;SDS011;71832;45.138;9.816;2023-08-06T08:17:43;4.10;;;1.20;;
82230;SDS011;71832;45.138;9.816;2023-08-06T08:20:14;3.35;;;1.02;;
82230;SDS011;71832;45.138;9.816;2023-08-06T08:22:43;2.20;;;1.00;;
82230;SDS011;71832;45.138;9.816;2023-08-06T08:25:12;1.52;;;1.10;;
82230;SDS011;71832;45.138;9.816;2023-08-06T08:27:41;2.42;;;1.27;;
82230;SDS011;71832;45.138;9.816;2023-08-06T08:30:09;1.60;;;1.00;;
82230;SDS011;71832;45.138;9.816;2023-08-06T08:32:38;3.17;;;1.10;;
82230;SDS011;71832;45.138;9.816;2023-08-06T08:35:07;2.45;;;1.23;;
82230;SDS011;71832;45.138;9.816;2023-08-06T08:37:38;5.43;;;1.38;;
82230;SDS011;71832;45.138;9.816;2023-08-06T08:40:07;3.60;;;1.02;;
82230;SDS011;71832;45.138;9.816;2023-08-06T08:42:36;3.58;;;1.13;;
82230;SDS011;71832;45.138;9.816;2023-08-06T08:45:04;3.83;;;1.10;;
82230;SDS011;71832;45.138;9.816;2023-08-06T08:47:46;2.40;;;1.27;;
82230;SDS011;71832;45.138;9.816;2023-08-06T08:50:15;1.25;;;1.10;;
82230;SDS011;71832;45.138;9.816;2023-08-06T08:52:45;6.93;;;1.10;;
82230;SDS011;71832;45.138;9.816;2023-08-06T08:55:14;1.88;;;1.10;;
82230;SDS011;71832;45.138;9.816;2023-08-06T08:57:42;5.65;;;1.20;;
82230;SDS011;71832;45.138;9.816;2023-08-06T09:00:10;2.10;;;1.10;;
82230;SDS011;71832;45.138;9.816;2023-08-06T09:02:40;1.52;;;1.10;;
82230;SDS011;71832;45.138;9.816;2023-08-06T09:05:12;2.63;;;1.17;;
82230;SDS011;71832;45.138;9.816;2023-08-06T09:07:42;1.77;;;1.00;;
82230;SDS011;71832;45.138;9.816;2023-08-06T09:10:13;1.27;;;1.08;;
82230;SDS011;71832;45.138;9.816;2023-08-06T09:12:44;2.45;;;1.10;;
82230;SDS011;71832;45.138;9.816;2023-08-06T09:15:13;2.03;;;1.00;;
82230;SDS011;71832;45.138;9.816;2023-08-06T09:17:42;2.70;;;1.02;;
82230;SDS011;71832;45.138;9.816;2023-08-06T09:20:12;2.55;;;1.00;;
82230;SDS011;71832;45.138;9.816;2023-08-06T09:22:41;2.20;;;1.00;;
82230;SDS011;71832;45.138;9.816;2023-08-06T09:25:10;5.50;;;1.25;;
82230;SDS011;71832;45.138;9.816;2023-08-06T09:27:40;1.67;;;1.05;;
82230;SDS011;71832;45.138;9.816;2023-08-06T09:30:13;1.98;;;1.13;;
82230;SDS011;71832;45.138;9.816;2023-08-06T09:32:57;1.67;;;1.20;;
82230;SDS011;71832;45.138;9.816;2023-08-06T09:35:24;1.77;;;1.30;;
82230;SDS011;71832;45.138;9.816;2023-08-06T09:37:55;2.67;;;1.10;;
82230;SDS011;71832;45.138;9.816;2023-08-06T09:40:33;5.03;;;1.00;;
82230;SDS011;71832;45.138;9.816;2023-08-06T09:43:02;1.33;;;1.10;;
82230;SDS011;71832;45.138;9.816;2023-08-06T09:45:33;2.80;;;1.20;;
82230;SDS011;71832;45.138;9.816;2023-08-06T09:48:03;2.25;;;1.10;;
82230;SDS011;71832;45.138;9.816;2023-08-06T09:50:32;2.33;;;1.40;;
82230;SDS011;71832;45.138;9.816;2023-08-06T09:53:03;2.75;;;1.23;;
82230;SDS011;71832;45.138;9.816;2023-08-06T09:55:32;3.67;;;1.25;;
82230;SDS011;71832;45.138;9.816;2023-08-06T09:58:01;1.85;;;1.17;;
82230;SDS011;71832;45.138;9.816;2023-08-06T10:00:30;2.47;;;1.20;;
82230;SDS011;71832;45.138;9.816;2023-08-06T10:03:00;2.45;;;1.20;;
82230;SDS011;71832;45.138;9.816;2023-08-06T10:05:29;1.73;;;1.00;;
82230;SDS011;71832;45.138;9.816;2023-08-06T10:08:00;2.25;;;1.20;;
82230;SDS011;71832;45.138;9.816;2023-08-06T10:10:30;1.75;;;1.05;;
82230;SDS011;71832;45.138;9.816;2023-08-06T10:12:59;2.50;;;1.17;;
82230;SDS011;71832;45.138;9.816;2023-08-06T10:15:30;3.08;;;1.25;;
82230;SDS011;71832;45.138;9.816;2023-08-06T10:17:59;2.75;;;1.10;;
82230;SDS011;71832;45.138;9.816;2023-08-06T10:20:32;3.42;;;1.15;;
82230;SDS011;71832;45.138;9.816;2023-08-06T10:23:02;5.28;;;1.23;;
82230;SDS011;71832;45.138;9.816;2023-08-06T10:25:32;2.10;;;1.33;;
82230;SDS011;71832;45.138;9.816;2023-08-06T10:28:06;3.78;;;1.20;;
82230;SDS011;71832;45.138;9.816;2023-08-06T10:30:47;3.47;;;1.20;;
82230;SDS011;71832;45.138;9.816;2023-08-06T10:33:15;1.52;;;1.20;;
82230;SDS011;71832;45.138;9.816;2023-08-06T10:35:48;1.50;;;1.10;;
82230;SDS011;71832;45.138;9.816;2023-08-06T10:38:19;4.53;;;1.20;;
82230;SDS011;71832;45.138;9.816;2023-08-06T10:40:49;2.30;;;1.30;;
82230;SDS011;71832;45.138;9.816;2023-08-06T10:43:40;3.55;;;1.40;;
82230;SDS011;71832;45.138;9.816;2023-08-06T10:46:09;3.83;;;1.05;;
82230;SDS011;71832;45.138;9.816;2023-08-06T10:48:39;1.80;;;1.10;;
82230;SDS011;71832;45.138;9.816;2023-08-06T10:51:08;1.77;;;1.13;;
82230;SDS011;71832;45.138;9.816;2023-08-06T10:53:41;3.30;;;1.23;;
82230;SDS011;71832;45.138;9.816;2023-08-06T10:58:42;2.20;;;1.33;;
82230;SDS011;71832;45.138;9.816;2023-08-06T11:01:11;2.35;;;1.17;;
82230;SDS011;71832;45.138;9.816;2023-08-06T11:03:39;2.75;;;1.10;;
82230;SDS011;71832;45.138;9.816;2023-08-06T11:06:08;2.80;;;1.58;;
82230;SDS011;71832;45.138;9.816;2023-08-06T11:08:39;3.47;;;1.30;;
82230;SDS011;71832;45.138;9.816;2023-08-06T11:11:14;2.83;;;1.40;;
82230;SDS011;71832;45.138;9.816;2023-08-06T11:13:42;2.33;;;1.30;;
82230;SDS011;71832;45.138;9.816;2023-08-06T11:16:12;3.13;;;1.20;;
82230;SDS011;71832;45.138;9.816;2023-08-06T11:18:45;2.05;;;1.20;;
82230;SDS011;71832;45.138;9.816;2023-08-06T11:21:13;1.60;;;1.00;;
82230;SDS011;71832;45.138;9.816;2023-08-06T11:23:45;2.80;;;1.30;;
82230;SDS011;71832;45.138;9.816;2023-08-06T11:26:12;1.27;;;1.00;;
82230;SDS011;71832;45.138;9.816;2023-08-06T11:28:45;1.40;;;1.20;;
82230;SDS011;71832;45.138;9.816;2023-08-06T11:31:21;1.38;;;1.00;;
82230;SDS011;71832;45.138;9.816;2023-08-06T11:33:51;2.95;;;1.25;;
82230;SDS011;71832;45.138;9.816;2023-08-06T11:39:08;1.50;;;1.30;;
82230;SDS011;71832;45.138;9.816;2023-08-06T11:41:36;1.70;;;1.20;;
82230;SDS011;71832;45.138;9.816;2023-08-06T11:44:05;3.70;;;1.20;;
82230;SDS011;71832;45.138;9.816;2023-08-06T11:46:58;3.33;;;1.10;;
82230;SDS011;71832;45.138;9.816;2023-08-06T11:49:37;1.67;;;1.25;;
82230;SDS011;71832;45.138;9.816;2023-08-06T11:52:25;1.33;;;1.10;;
82230;SDS011;71832;45.138;9.816;2023-08-06T11:57:37;1.35;;;1.17;;
82230;SDS011;71832;45.138;9.816;2023-08-06T12:00:07;2.65;;;1.20;;
82230;SDS011;71832;45.138;9.816;2023-08-06T12:02:38;2.35;;;1.17;;
82230;SDS011;71832;45.138;9.816;2023-08-06T12:05:11;2.65;;;1.13;;
82230;SDS011;71832;45.138;9.816;2023-08-06T12:07:44;3.88;;;1.17;;
82230;SDS011;71832;45.138;9.816;2023-08-06T12:10:14;1.73;;;1.20;;
82230;SDS011;71832;45.138;9.816;2023-08-06T12:12:42;1.08;;;0.98;;
82230;SDS011;71832;45.138;9.816;2023-08-06T12:15:10;2.05;;;1.17;;
82230;SDS011;71832;45.138;9.816;2023-08-06T12:17:38;1.17;;;1.08;;
82230;SDS011;71832;45.138;9.816;2023-08-06T12:20:06;1.58;;;1.10;;
82230;SDS011;71832;45.138;9.816;2023-08-06T12:22:35;1.60;;;1.20;;
82230;SDS011;71832;45.138;9.816;2023-08-06T12:25:05;1.05;;;0.95;;
82230;SDS011;71832;45.138;9.816;2023-08-06T12:27:34;3.08;;;1.23;;
82230;SDS011;71832;45.138;9.816;2023-08-06T12:30:03;1.50;;;1.13;;
82230;SDS011;71832;45.138;9.816;2023-08-06T12:32:32;1.33;;;1.10;;
82230;SDS011;71832;45.138;9.816;2023-08-06T12:35:01;1.83;;;1.10;;
82230;SDS011;71832;45.138;9.816;2023-08-06T12:37:30;1.27;;;1.17;;
82230;SDS011;71832;45.138;9.816;2023-08-06T12:39:59;1.63;;;1.10;;
82230;SDS011;71832;45.138;9.816;2023-08-06T12:42:26;3.00;;;1.10;;
82230;SDS011;71832;45.138;9.816;2023-08-06T12:44:54;1.58;;;1.02;;
82230;SDS011;71832;45.138;9.816;2023-08-06T12:47:22;1.17;;;0.93;;
82230;SDS011;71832;45.138;9.816;2023-08-06T12:49:49;3.00;;;1.20;;
82230;SDS011;71832;45.138;9.816;2023-08-06T12:52:17;1.88;;;1.30;;
82230;SDS011;71832;45.138;9.816;2023-08-06T12:54:45;1.67;;;1.00;;
82230;SDS011;71832;45.138;9.816;2023-08-06T12:57:13;2.28;;;1.23;;
82230;SDS011;71832;45.138;9.816;2023-08-06T12:59:40;1.90;;;1.25;;
82230;SDS011;71832;45.138;9.816;2023-08-06T13:02:08;1.85;;;1.10;;
82230;SDS011;71832;45.138;9.816;2023-08-06T13:04:36;1.20;;;0.90;;
82230;SDS011;71832;45.138;9.816;2023-08-06T13:07:05;2.08;;;1.20;;
82230;SDS011;71832;45.138;9.816;2023-08-06T13:09:33;1.95;;;1.10;;
82230;SDS011;71832;45.138;9.816;2023-08-06T13:12:00;1.20;;;0.98;;
82230;SDS011;71832;45.138;9.816;2023-08-06T13:14:31;4.78;;;1.20;;
82230;SDS011;71832;45.138;9.816;2023-08-06T13:16:58;1.33;;;0.90;;
82230;SDS011;71832;45.138;9.816;2023-08-06T13:19:27;2.00;;;1.13;;
82230;SDS011;71832;45.138;9.816;2023-08-06T13:22:00;1.45;;;0.90;;
82230;SDS011;71832;45.138;9.816;2023-08-06T13:24:30;1.48;;;1.00;;
82230;SDS011;71832;45.138;9.816;2023-08-06T13:26:59;2.92;;;1.23;;
82230;SDS011;71832;45.138;9.816;2023-08-06T13:29:26;1.30;;;0.85;;
82230;SDS011;71832;45.138;9.816;2023-08-06T13:31:54;1.58;;;1.25;;
82230;SDS011;71832;45.138;9.816;2023-08-06T13:34:22;2.58;;;0.90;;
82230;SDS011;71832;45.138;9.816;2023-08-06T13:36:50;1.13;;;1.00;;
82230;SDS011;71832;45.138;9.816;2023-08-06T13:39:18;1.55;;;1.05;;
82230;SDS011;71832;45.138;9.816;2023-08-06T13:41:46;1.50;;;1.10;;
82230;SDS011;71832;45.138;9.816;2023-08-06T13:44:14;3.22;;;0.98;;
82230;SDS011;71832;45.138;9.816;2023-08-06T13:46:42;1.48;;;1.00;;
82230;SDS011;71832;45.138;9.816;2023-08-06T13:49:10;1.75;;;1.10;;
82230;SDS011;71832;45.138;9.816;2023-08-06T13:51:38;2.33;;;0.95;;
82230;SDS011;71832;45.138;9.816;2023-08-06T13:54:06;2.67;;;1.00;;
82230;SDS011;71832;45.138;9.816;2023-08-06T13:56:34;0.85;;;0.85;;
82230;SDS011;71832;45.138;9.816;2023-08-06T13:59:03;2.55;;;1.10;;
82230;SDS011;71832;45.138;9.816;2023-08-06T14:01:32;2.42;;;1.23;;
82230;SDS011;71832;45.138;9.816;2023-08-06T14:04:00;1.10;;;1.00;;
82230;SDS011;71832;45.138;9.816;2023-08-06T14:06:28;2.00;;;1.00;;
82230;SDS011;71832;45.138;9.816;2023-08-06T14:08:57;0.93;;;0.88;;
82230;SDS011;71832;45.138;9.816;2023-08-06T14:11:25;1.25;;;0.98;;
82230;SDS011;71832;45.138;9.816;2023-08-06T14:13:53;2.35;;;1.10;;
82230;SDS011;71832;45.138;9.816;2023-08-06T14:16:21;2.90;;;0.93;;
82230;SDS011;71832;45.138;9.816;2023-08-06T14:18:49;0.93;;;0.90;;
82230;SDS011;71832;45.138;9.816;2023-08-06T14:21:17;1.65;;;0.90;;
82230;SDS011;71832;45.138;9.816;2023-08-06T14:23:46;2.63;;;1.00;;
82230;SDS011;71832;45.138;9.816;2023-08-06T14:26:14;1.02;;;0.93;;
82230;SDS011;71832;45.138;9.816;2023-08-06T14:28:42;2.92;;;0.90;;
82230;SDS011;71832;45.138;9.816;2023-08-06T14:31:11;2.13;;;1.10;;
82230;SDS011;71832;45.138;9.816;2023-08-06T14:33:40;1.25;;;0.88;;
82230;SDS011;71832;45.138;9.816;2023-08-06T14:36:08;2.80;;;1.25;;
82230;SDS011;71832;45.138;9.816;2023-08-06T14:38:36;1.50;;;0.88;;
82230;SDS011;71832;45.138;9.816;2023-08-06T14:41:04;1.73;;;0.90;;
82230;SDS011;71832;45.138;9.816;2023-08-06T14:43:32;1.95;;;1.08;;
82230;SDS011;71832;45.138;9.816;2023-08-06T14:46:00;1.45;;;0.95;;
82230;SDS011;71832;45.138;9.816;2023-08-06T14:48:29;1.58;;;1.00;;
82230;SDS011;71832;45.138;9.816;2023-08-06T14:50:57;1.10;;;1.00;;
82230;SDS011;71832;45.138;9.816;2023-08-06T14:53:29;1.50;;;0.95;;
82230;SDS011;71832;45.138;9.816;2023-08-06T14:55:57;1.98;;;0.80;;
82230;SDS011;71832;45.138;9.816;2023-08-06T14:58:25;2.53;;;1.10;;
82230;SDS011;71832;45.138;9.816;2023-08-06T15:00:53;2.50;;;1.13;;
82230;SDS011;71832;45.138;9.816;2023-08-06T15:03:20;1.15;;;0.88;;
82230;SDS011;71832;45.138;9.816;2023-08-06T15:05:48;1.63;;;0.90;;
82230;SDS011;71832;45.138;9.816;2023-08-06T15:08:17;1.10;;;0.93;;